KNYG/NYG METAR and TAF weather

Enter ICAO airport designator
Station Type Date Time Source
KNYG METAR 2022/01/27 22:56 UTC NOAA

KNYG 272256Z 13007KT 10SM CLR 02/M07 A3032 RMK AO2 SLP268 T00171072 $


Station Type Date Time Source
KNYG Decoded METAR 2022/01/27 22:56 UTC NOAA

QUANTICO MARINE CORPS AIRFAC, VA, United States (KNYG) 38-30N 077-18W 3M
Jan 27, 2022 - 05:56 PM EST / 2022.01.27 2256 UTC
Wind: from the SE (130 degrees) at 8 MPH (7 KT):0
Visibility: 10 mile(s):0
Sky conditions: clear
Temperature: 35.1 F (1.7 C)
Dew Point: 19.0 F (-7.2 C)
Relative Humidity: 51%
Pressure (altimeter): 30.32 in. Hg (1026 hPa)
ob: KNYG 272256Z 13007KT 10SM CLR 02/M07 A3032 RMK AO2 SLP268 T00171072
cycle: 23

Station Type Date Time Source
KNYG TAF 2022/01/27 21:39 UTC NOAA

TAF KNYG 2721/2821 16009KT 9999 SKC QNH3032INS
BECMG 2800/2802 VRB06KT 9999 BKN030 QNH3027INS
FM281800 VRB06KT 6000 SN OVC010 QNH3009INS TM02/2800Z T02/2816Z LAST NO AMENDS UNTIL 2809

Example: see airport list